sensor_id;sensor_type;location;lat;lon;timestamp;P1;durP1;ratioP1;P2;durP2;ratioP2
27558;SDS011;15002;52.028;5.670;2023-07-29T00:01:49;11.40;;;8.60;;
27558;SDS011;15002;52.028;5.670;2023-07-29T00:04:16;12.32;;;8.85;;
27558;SDS011;15002;52.028;5.670;2023-07-29T00:06:42;14.23;;;8.25;;
27558;SDS011;15002;52.028;5.670;2023-07-29T00:09:07;11.18;;;8.65;;
27558;SDS011;15002;52.028;5.670;2023-07-29T00:11:33;13.60;;;9.18;;
27558;SDS011;15002;52.028;5.670;2023-07-29T00:14:00;13.02;;;8.68;;
27558;SDS011;15002;52.028;5.670;2023-07-29T00:16:26;10.50;;;7.82;;
27558;SDS011;15002;52.028;5.670;2023-07-29T00:18:52;10.63;;;8.23;;
27558;SDS011;15002;52.028;5.670;2023-07-29T00:21:18;12.38;;;8.38;;
27558;SDS011;15002;52.028;5.670;2023-07-29T00:23:44;11.27;;;7.97;;
27558;SDS011;15002;52.028;5.670;2023-07-29T00:26:10;12.77;;;8.70;;
27558;SDS011;15002;52.028;5.670;2023-07-29T00:28:36;15.75;;;7.90;;
27558;SDS011;15002;52.028;5.670;2023-07-29T00:31:01;11.25;;;9.15;;
27558;SDS011;15002;52.028;5.670;2023-07-29T00:33:27;14.00;;;8.88;;
27558;SDS011;15002;52.028;5.670;2023-07-29T00:35:53;12.45;;;8.35;;
27558;SDS011;15002;52.028;5.670;2023-07-29T00:38:18;12.70;;;7.97;;
27558;SDS011;15002;52.028;5.670;2023-07-29T00:40:44;10.05;;;7.38;;
27558;SDS011;15002;52.028;5.670;2023-07-29T00:43:11;9.10;;;8.20;;
27558;SDS011;15002;52.028;5.670;2023-07-29T00:45:36;9.82;;;8.35;;
27558;SDS011;15002;52.028;5.670;2023-07-29T00:48:03;11.02;;;7.53;;
27558;SDS011;15002;52.028;5.670;2023-07-29T00:50:30;14.80;;;9.27;;
27558;SDS011;15002;52.028;5.670;2023-07-29T00:52:57;13.30;;;8.77;;
27558;SDS011;15002;52.028;5.670;2023-07-29T00:55:22;10.25;;;8.77;;
27558;SDS011;15002;52.028;5.670;2023-07-29T00:57:49;13.43;;;8.30;;
27558;SDS011;15002;52.028;5.670;2023-07-29T01:00:17;9.52;;;7.78;;
27558;SDS011;15002;52.028;5.670;2023-07-29T01:02:43;11.07;;;7.70;;
27558;SDS011;15002;52.028;5.670;2023-07-29T01:05:10;10.73;;;7.25;;
27558;SDS011;15002;52.028;5.670;2023-07-29T01:10:30;10.73;;;7.70;;
27558;SDS011;15002;52.028;5.670;2023-07-29T01:18:42;12.25;;;8.88;;
27558;SDS011;15002;52.028;5.670;2023-07-29T01:21:12;10.38;;;8.93;;
27558;SDS011;15002;52.028;5.670;2023-07-29T01:23:39;12.93;;;8.27;;
27558;SDS011;15002;52.028;5.670;2023-07-29T01:26:04;11.18;;;8.30;;
27558;SDS011;15002;52.028;5.670;2023-07-29T01:28:30;12.32;;;8.20;;
27558;SDS011;15002;52.028;5.670;2023-07-29T01:30:58;13.13;;;8.57;;
27558;SDS011;15002;52.028;5.670;2023-07-29T01:33:40;12.23;;;8.85;;
27558;SDS011;15002;52.028;5.670;2023-07-29T01:36:13;12.93;;;9.52;;
27558;SDS011;15002;52.028;5.670;2023-07-29T01:38:43;13.40;;;9.10;;
27558;SDS011;15002;52.028;5.670;2023-07-29T01:41:10;9.88;;;8.23;;
27558;SDS011;15002;52.028;5.670;2023-07-29T01:43:36;10.85;;;7.93;;
27558;SDS011;15002;52.028;5.670;2023-07-29T01:46:08;11.68;;;6.32;;
27558;SDS011;15002;52.028;5.670;2023-07-29T01:48:37;10.13;;;6.80;;
27558;SDS011;15002;52.028;5.670;2023-07-29T01:51:03;9.10;;;6.40;;
27558;SDS011;15002;52.028;5.670;2023-07-29T01:53:30;8.57;;;6.30;;
27558;SDS011;15002;52.028;5.670;2023-07-29T01:55:55;10.00;;;6.07;;
27558;SDS011;15002;52.028;5.670;2023-07-29T01:58:22;7.65;;;5.25;;
27558;SDS011;15002;52.028;5.670;2023-07-29T02:00:48;6.30;;;4.90;;
27558;SDS011;15002;52.028;5.670;2023-07-29T02:03:13;8.68;;;5.65;;
27558;SDS011;15002;52.028;5.670;2023-07-29T02:05:39;9.65;;;6.10;;
27558;SDS011;15002;52.028;5.670;2023-07-29T02:08:05;8.65;;;5.88;;
27558;SDS011;15002;52.028;5.670;2023-07-29T02:10:31;9.68;;;7.07;;
27558;SDS011;15002;52.028;5.670;2023-07-29T02:12:56;11.35;;;7.32;;
27558;SDS011;15002;52.028;5.670;2023-07-29T02:15:22;13.68;;;6.75;;
27558;SDS011;15002;52.028;5.670;2023-07-29T02:17:49;7.65;;;6.75;;
27558;SDS011;15002;52.028;5.670;2023-07-29T02:20:16;7.80;;;6.45;;
27558;SDS011;15002;52.028;5.670;2023-07-29T02:22:42;8.38;;;6.43;;
27558;SDS011;15002;52.028;5.670;2023-07-29T02:25:08;8.98;;;6.78;;
27558;SDS011;15002;52.028;5.670;2023-07-29T02:27:35;9.55;;;6.68;;
27558;SDS011;15002;52.028;5.670;2023-07-29T02:30:00;10.63;;;6.88;;
27558;SDS011;15002;52.028;5.670;2023-07-29T02:32:27;10.25;;;6.82;;
27558;SDS011;15002;52.028;5.670;2023-07-29T02:34:53;9.82;;;6.50;;
27558;SDS011;15002;52.028;5.670;2023-07-29T02:37:18;8.57;;;6.30;;
27558;SDS011;15002;52.028;5.670;2023-07-29T02:39:45;8.75;;;6.70;;
27558;SDS011;15002;52.028;5.670;2023-07-29T02:42:10;9.40;;;6.43;;
27558;SDS011;15002;52.028;5.670;2023-07-29T02:44:36;11.02;;;6.90;;
27558;SDS011;15002;52.028;5.670;2023-07-29T02:47:02;8.88;;;6.22;;
27558;SDS011;15002;52.028;5.670;2023-07-29T02:49:28;8.30;;;6.55;;
27558;SDS011;15002;52.028;5.670;2023-07-29T02:51:54;11.45;;;7.45;;
27558;SDS011;15002;52.028;5.670;2023-07-29T02:54:19;11.45;;;7.47;;
27558;SDS011;15002;52.028;5.670;2023-07-29T02:56:45;9.50;;;7.13;;
27558;SDS011;15002;52.028;5.670;2023-07-29T02:59:11;9.95;;;7.70;;
27558;SDS011;15002;52.028;5.670;2023-07-29T03:01:36;12.60;;;7.43;;
27558;SDS011;15002;52.028;5.670;2023-07-29T03:04:02;10.60;;;7.60;;
27558;SDS011;15002;52.028;5.670;2023-07-29T03:06:28;10.73;;;7.63;;
27558;SDS011;15002;52.028;5.670;2023-07-29T03:08:54;9.98;;;7.20;;
27558;SDS011;15002;52.028;5.670;2023-07-29T03:11:19;11.38;;;6.70;;
27558;SDS011;15002;52.028;5.670;2023-07-29T03:13:45;12.02;;;6.88;;
27558;SDS011;15002;52.028;5.670;2023-07-29T03:16:11;9.63;;;7.03;;
27558;SDS011;15002;52.028;5.670;2023-07-29T03:18:42;9.95;;;6.65;;
27558;SDS011;15002;52.028;5.670;2023-07-29T03:21:08;14.02;;;6.78;;
27558;SDS011;15002;52.028;5.670;2023-07-29T03:23:35;8.25;;;6.20;;
27558;SDS011;15002;52.028;5.670;2023-07-29T03:26:02;9.02;;;6.10;;
27558;SDS011;15002;52.028;5.670;2023-07-29T03:28:34;8.13;;;5.40;;
27558;SDS011;15002;52.028;5.670;2023-07-29T03:31:01;7.50;;;5.70;;
27558;SDS011;15002;52.028;5.670;2023-07-29T03:33:27;8.32;;;5.40;;
27558;SDS011;15002;52.028;5.670;2023-07-29T03:35:53;8.35;;;5.63;;
27558;SDS011;15002;52.028;5.670;2023-07-29T03:38:19;9.57;;;5.55;;
27558;SDS011;15002;52.028;5.670;2023-07-29T03:40:44;8.32;;;5.38;;
27558;SDS011;15002;52.028;5.670;2023-07-29T03:43:10;7.53;;;5.70;;
27558;SDS011;15002;52.028;5.670;2023-07-29T03:45:36;10.35;;;7.78;;
27558;SDS011;15002;52.028;5.670;2023-07-29T03:48:03;12.18;;;9.02;;
27558;SDS011;15002;52.028;5.670;2023-07-29T03:50:29;11.82;;;9.02;;
27558;SDS011;15002;52.028;5.670;2023-07-29T03:52:55;10.85;;;7.55;;
27558;SDS011;15002;52.028;5.670;2023-07-29T03:55:21;7.88;;;6.15;;
27558;SDS011;15002;52.028;5.670;2023-07-29T03:57:47;7.28;;;5.68;;
27558;SDS011;15002;52.028;5.670;2023-07-29T04:00:13;8.13;;;5.22;;
27558;SDS011;15002;52.028;5.670;2023-07-29T04:02:38;8.73;;;5.18;;
27558;SDS011;15002;52.028;5.670;2023-07-29T04:05:05;7.32;;;4.57;;
27558;SDS011;15002;52.028;5.670;2023-07-29T04:07:33;6.97;;;4.32;;
27558;SDS011;15002;52.028;5.670;2023-07-29T04:09:59;10.55;;;4.88;;
27558;SDS011;15002;52.028;5.670;2023-07-29T04:12:26;7.15;;;4.43;;
27558;SDS011;15002;52.028;5.670;2023-07-29T04:14:51;7.40;;;4.78;;
27558;SDS011;15002;52.028;5.670;2023-07-29T04:17:17;7.18;;;4.57;;
27558;SDS011;15002;52.028;5.670;2023-07-29T04:19:43;7.07;;;4.40;;
27558;SDS011;15002;52.028;5.670;2023-07-29T04:22:08;7.95;;;4.43;;
27558;SDS011;15002;52.028;5.670;2023-07-29T04:24:37;8.05;;;4.53;;
27558;SDS011;15002;52.028;5.670;2023-07-29T04:27:03;10.10;;;4.50;;
27558;SDS011;15002;52.028;5.670;2023-07-29T04:29:29;7.90;;;4.32;;
27558;SDS011;15002;52.028;5.670;2023-07-29T04:31:55;7.82;;;3.88;;
27558;SDS011;15002;52.028;5.670;2023-07-29T04:34:24;4.95;;;4.07;;
27558;SDS011;15002;52.028;5.670;2023-07-29T04:36:50;5.47;;;3.92;;
27558;SDS011;15002;52.028;5.670;2023-07-29T04:39:15;5.75;;;3.83;;
27558;SDS011;15002;52.028;5.670;2023-07-29T04:41:41;5.20;;;3.85;;
27558;SDS011;15002;52.028;5.670;2023-07-29T04:44:07;8.93;;;4.25;;
27558;SDS011;15002;52.028;5.670;2023-07-29T04:46:33;5.75;;;3.90;;
27558;SDS011;15002;52.028;5.670;2023-07-29T04:49:00;5.18;;;3.78;;
27558;SDS011;15002;52.028;5.670;2023-07-29T04:51:26;7.53;;;3.15;;
27558;SDS011;15002;52.028;5.670;2023-07-29T04:53:51;4.93;;;3.90;;
27558;SDS011;15002;52.028;5.670;2023-07-29T04:56:17;5.68;;;3.40;;
27558;SDS011;15002;52.028;5.670;2023-07-29T04:58:43;6.95;;;3.05;;
27558;SDS011;15002;52.028;5.670;2023-07-29T05:01:08;6.65;;;3.40;;
27558;SDS011;15002;52.028;5.670;2023-07-29T05:03:34;5.60;;;2.83;;
27558;SDS011;15002;52.028;5.670;2023-07-29T05:06:00;5.90;;;2.90;;
27558;SDS011;15002;52.028;5.670;2023-07-29T05:08:26;6.32;;;3.53;;
27558;SDS011;15002;52.028;5.670;2023-07-29T05:10:52;6.50;;;3.22;;
27558;SDS011;15002;52.028;5.670;2023-07-29T05:13:19;6.22;;;3.40;;
27558;SDS011;15002;52.028;5.670;2023-07-29T05:15:45;4.63;;;2.95;;
27558;SDS011;15002;52.028;5.670;2023-07-29T05:18:12;4.28;;;3.15;;
27558;SDS011;15002;52.028;5.670;2023-07-29T05:20:37;4.75;;;2.72;;
27558;SDS011;15002;52.028;5.670;2023-07-29T05:23:03;4.60;;;3.13;;
27558;SDS011;15002;52.028;5.670;2023-07-29T05:25:28;5.45;;;3.03;;
27558;SDS011;15002;52.028;5.670;2023-07-29T05:27:54;4.53;;;2.70;;
27558;SDS011;15002;52.028;5.670;2023-07-29T05:30:20;5.60;;;3.05;;
27558;SDS011;15002;52.028;5.670;2023-07-29T05:32:45;4.10;;;2.92;;
27558;SDS011;15002;52.028;5.670;2023-07-29T05:35:11;4.18;;;3.08;;
27558;SDS011;15002;52.028;5.670;2023-07-29T05:37:40;4.57;;;3.10;;
27558;SDS011;15002;52.028;5.670;2023-07-29T05:40:06;5.53;;;3.50;;
27558;SDS011;15002;52.028;5.670;2023-07-29T05:42:36;6.72;;;3.30;;
27558;SDS011;15002;52.028;5.670;2023-07-29T05:45:01;6.70;;;2.90;;
27558;SDS011;15002;52.028;5.670;2023-07-29T05:47:27;4.82;;;3.30;;
27558;SDS011;15002;52.028;5.670;2023-07-29T05:49:53;6.30;;;3.58;;
27558;SDS011;15002;52.028;5.670;2023-07-29T05:52:19;5.32;;;3.58;;
27558;SDS011;15002;52.028;5.670;2023-07-29T05:54:45;5.13;;;3.60;;
27558;SDS011;15002;52.028;5.670;2023-07-29T05:57:11;8.52;;;3.90;;
27558;SDS011;15002;52.028;5.670;2023-07-29T05:59:37;6.15;;;3.47;;
27558;SDS011;15002;52.028;5.670;2023-07-29T06:02:03;5.13;;;3.70;;
27558;SDS011;15002;52.028;5.670;2023-07-29T06:04:29;8.27;;;3.90;;
27558;SDS011;15002;52.028;5.670;2023-07-29T06:06:55;8.25;;;3.78;;
27558;SDS011;15002;52.028;5.670;2023-07-29T06:09:21;6.57;;;3.83;;
27558;SDS011;15002;52.028;5.670;2023-07-29T06:11:47;6.05;;;4.07;;
27558;SDS011;15002;52.028;5.670;2023-07-29T06:14:13;8.82;;;4.05;;
27558;SDS011;15002;52.028;5.670;2023-07-29T06:16:39;5.10;;;3.70;;
27558;SDS011;15002;52.028;5.670;2023-07-29T06:19:04;7.20;;;3.97;;
27558;SDS011;15002;52.028;5.670;2023-07-29T06:21:30;6.50;;;3.97;;
27558;SDS011;15002;52.028;5.670;2023-07-29T06:23:56;10.60;;;4.07;;
27558;SDS011;15002;52.028;5.670;2023-07-29T06:26:21;5.38;;;3.53;;
27558;SDS011;15002;52.028;5.670;2023-07-29T06:28:47;5.68;;;3.50;;
27558;SDS011;15002;52.028;5.670;2023-07-29T06:31:13;5.68;;;3.60;;
27558;SDS011;15002;52.028;5.670;2023-07-29T06:33:39;6.72;;;3.90;;
27558;SDS011;15002;52.028;5.670;2023-07-29T06:36:05;6.05;;;3.95;;
27558;SDS011;15002;52.028;5.670;2023-07-29T06:38:31;7.70;;;3.55;;
27558;SDS011;15002;52.028;5.670;2023-07-29T06:40:56;8.38;;;3.50;;
27558;SDS011;15002;52.028;5.670;2023-07-29T06:43:22;9.77;;;4.15;;
27558;SDS011;15002;52.028;5.670;2023-07-29T06:45:48;6.95;;;3.95;;
27558;SDS011;15002;52.028;5.670;2023-07-29T06:48:14;6.00;;;3.55;;
27558;SDS011;15002;52.028;5.670;2023-07-29T06:50:39;5.20;;;3.50;;
27558;SDS011;15002;52.028;5.670;2023-07-29T06:53:05;6.53;;;3.53;;
27558;SDS011;15002;52.028;5.670;2023-07-29T06:55:31;4.78;;;3.63;;
27558;SDS011;15002;52.028;5.670;2023-07-29T06:57:57;7.32;;;3.78;;
27558;SDS011;15002;52.028;5.670;2023-07-29T07:00:22;6.07;;;3.78;;
27558;SDS011;15002;52.028;5.670;2023-07-29T07:02:48;6.45;;;4.20;;
27558;SDS011;15002;52.028;5.670;2023-07-29T07:05:14;7.68;;;4.05;;
27558;SDS011;15002;52.028;5.670;2023-07-29T07:07:40;6.07;;;4.35;;
27558;SDS011;15002;52.028;5.670;2023-07-29T07:10:05;7.38;;;4.38;;
27558;SDS011;15002;52.028;5.670;2023-07-29T07:12:31;7.60;;;5.30;;
27558;SDS011;15002;52.028;5.670;2023-07-29T07:14:57;7.53;;;4.63;;
27558;SDS011;15002;52.028;5.670;2023-07-29T07:17:23;6.18;;;4.70;;
27558;SDS011;15002;52.028;5.670;2023-07-29T07:19:48;7.53;;;4.43;;
27558;SDS011;15002;52.028;5.670;2023-07-29T07:22:16;6.85;;;4.80;;
27558;SDS011;15002;52.028;5.670;2023-07-29T07:24:41;7.03;;;5.30;;
27558;SDS011;15002;52.028;5.670;2023-07-29T07:27:07;6.85;;;5.00;;
27558;SDS011;15002;52.028;5.670;2023-07-29T07:29:33;6.72;;;5.38;;
27558;SDS011;15002;52.028;5.670;2023-07-29T07:31:58;8.27;;;4.88;;
27558;SDS011;15002;52.028;5.670;2023-07-29T07:34:24;6.05;;;4.60;;
27558;SDS011;15002;52.028;5.670;2023-07-29T07:36:50;6.20;;;4.68;;
27558;SDS011;15002;52.028;5.670;2023-07-29T07:39:16;12.82;;;7.40;;
27558;SDS011;15002;52.028;5.670;2023-07-29T07:41:41;8.68;;;5.63;;
27558;SDS011;15002;52.028;5.670;2023-07-29T07:44:07;6.00;;;5.40;;
27558;SDS011;15002;52.028;5.670;2023-07-29T07:46:33;9.15;;;6.93;;
27558;SDS011;15002;52.028;5.670;2023-07-29T07:48:59;7.15;;;5.45;;
27558;SDS011;15002;52.028;5.670;2023-07-29T07:51:24;6.13;;;5.18;;
27558;SDS011;15002;52.028;5.670;2023-07-29T07:53:50;10.05;;;6.78;;
27558;SDS011;15002;52.028;5.670;2023-07-29T07:56:16;7.93;;;6.70;;
27558;SDS011;15002;52.028;5.670;2023-07-29T07:58:41;10.02;;;7.38;;
27558;SDS011;15002;52.028;5.670;2023-07-29T08:01:07;8.93;;;6.75;;
27558;SDS011;15002;52.028;5.670;2023-07-29T08:03:34;8.07;;;6.10;;
27558;SDS011;15002;52.028;5.670;2023-07-29T08:06:00;10.98;;;8.10;;
27558;SDS011;15002;52.028;5.670;2023-07-29T08:08:27;10.40;;;6.57;;
27558;SDS011;15002;52.028;5.670;2023-07-29T08:10:53;6.55;;;5.40;;
27558;SDS011;15002;52.028;5.670;2023-07-29T08:13:19;6.75;;;5.55;;
27558;SDS011;15002;52.028;5.670;2023-07-29T08:15:48;8.43;;;5.15;;
27558;SDS011;15002;52.028;5.670;2023-07-29T08:18:15;7.32;;;6.07;;
27558;SDS011;15002;52.028;5.670;2023-07-29T08:20:41;7.25;;;4.90;;
27558;SDS011;15002;52.028;5.670;2023-07-29T08:23:31;11.73;;;6.38;;
27558;SDS011;15002;52.028;5.670;2023-07-29T08:25:59;6.07;;;5.47;;
27558;SDS011;15002;52.028;5.670;2023-07-29T08:28:27;6.03;;;5.35;;
27558;SDS011;15002;52.028;5.670;2023-07-29T08:30:54;7.43;;;5.78;;
27558;SDS011;15002;52.028;5.670;2023-07-29T08:33:20;8.70;;;5.50;;
27558;SDS011;15002;52.028;5.670;2023-07-29T08:35:45;6.07;;;4.65;;
27558;SDS011;15002;52.028;5.670;2023-07-29T08:38:11;4.85;;;3.63;;
27558;SDS011;15002;52.028;5.670;2023-07-29T08:40:37;7.15;;;4.30;;
27558;SDS011;15002;52.028;5.670;2023-07-29T08:43:07;5.15;;;3.55;;
27558;SDS011;15002;52.028;5.670;2023-07-29T08:45:34;4.05;;;3.25;;
27558;SDS011;15002;52.028;5.670;2023-07-29T08:48:06;3.33;;;3.00;;
27558;SDS011;15002;52.028;5.670;2023-07-29T08:50:33;5.20;;;3.65;;
27558;SDS011;15002;52.028;5.670;2023-07-29T08:53:02;4.88;;;3.10;;
27558;SDS011;15002;52.028;5.670;2023-07-29T08:55:30;3.28;;;2.80;;
27558;SDS011;15002;52.028;5.670;2023-07-29T08:57:56;5.93;;;3.08;;
27558;SDS011;15002;52.028;5.670;2023-07-29T09:00:23;3.25;;;2.70;;
27558;SDS011;15002;52.028;5.670;2023-07-29T09:02:50;4.15;;;2.72;;
27558;SDS011;15002;52.028;5.670;2023-07-29T09:05:15;6.07;;;3.17;;
27558;SDS011;15002;52.028;5.670;2023-07-29T09:07:41;5.13;;;3.28;;
27558;SDS011;15002;52.028;5.670;2023-07-29T09:10:09;4.20;;;3.13;;
27558;SDS011;15002;52.028;5.670;2023-07-29T09:12:38;4.38;;;3.55;;
27558;SDS011;15002;52.028;5.670;2023-07-29T09:15:04;4.10;;;3.55;;
27558;SDS011;15002;52.028;5.670;2023-07-29T09:17:31;6.78;;;3.47;;
27558;SDS011;15002;52.028;5.670;2023-07-29T09:19:58;4.88;;;3.38;;
27558;SDS011;15002;52.028;5.670;2023-07-29T09:22:24;3.80;;;2.95;;
27558;SDS011;15002;52.028;5.670;2023-07-29T09:24:52;3.90;;;3.08;;
27558;SDS011;15002;52.028;5.670;2023-07-29T09:27:25;4.70;;;3.00;;
27558;SDS011;15002;52.028;5.670;2023-07-29T09:29:52;3.92;;;3.10;;
27558;SDS011;15002;52.028;5.670;2023-07-29T09:32:22;3.50;;;2.60;;
27558;SDS011;15002;52.028;5.670;2023-07-29T09:34:49;4.63;;;2.63;;
27558;SDS011;15002;52.028;5.670;2023-07-29T09:37:16;3.50;;;2.85;;
27558;SDS011;15002;52.028;5.670;2023-07-29T09:39:46;4.25;;;2.35;;
27558;SDS011;15002;52.028;5.670;2023-07-29T09:42:16;2.90;;;2.60;;
27558;SDS011;15002;52.028;5.670;2023-07-29T09:44:46;6.63;;;2.50;;
27558;SDS011;15002;52.028;5.670;2023-07-29T09:47:23;5.18;;;2.65;;
27558;SDS011;15002;52.028;5.670;2023-07-29T09:49:50;2.42;;;2.10;;
27558;SDS011;15002;52.028;5.670;2023-07-29T09:52:19;3.60;;;2.00;;
27558;SDS011;15002;52.028;5.670;2023-07-29T09:54:47;3.47;;;1.80;;
27558;SDS011;15002;52.028;5.670;2023-07-29T09:57:13;2.00;;;1.77;;
27558;SDS011;15002;52.028;5.670;2023-07-29T09:59:41;2.97;;;2.00;;
27558;SDS011;15002;52.028;5.670;2023-07-29T10:02:09;2.35;;;1.60;;
27558;SDS011;15002;52.028;5.670;2023-07-29T10:04:43;3.25;;;1.90;;
27558;SDS011;15002;52.028;5.670;2023-07-29T10:07:11;5.43;;;1.93;;
27558;SDS011;15002;52.028;5.670;2023-07-29T10:09:37;2.70;;;1.48;;
27558;SDS011;15002;52.028;5.670;2023-07-29T10:12:04;3.47;;;2.05;;
27558;SDS011;15002;52.028;5.670;2023-07-29T10:14:31;2.72;;;2.10;;
27558;SDS011;15002;52.028;5.670;2023-07-29T10:16:57;2.65;;;1.75;;
27558;SDS011;15002;52.028;5.670;2023-07-29T10:19:24;3.47;;;1.80;;
27558;SDS011;15002;52.028;5.670;2023-07-29T10:21:53;1.98;;;1.50;;
27558;SDS011;15002;52.028;5.670;2023-07-29T10:24:22;5.55;;;1.85;;
27558;SDS011;15002;52.028;5.670;2023-07-29T10:26:55;4.05;;;1.92;;
27558;SDS011;15002;52.028;5.670;2023-07-29T10:29:23;4.03;;;1.70;;
27558;SDS011;15002;52.028;5.670;2023-07-29T10:31:49;3.78;;;1.70;;
27558;SDS011;15002;52.028;5.670;2023-07-29T10:34:22;2.45;;;1.55;;
27558;SDS011;15002;52.028;5.670;2023-07-29T10:36:48;2.00;;;1.60;;
27558;SDS011;15002;52.028;5.670;2023-07-29T10:39:15;5.95;;;1.80;;
27558;SDS011;15002;52.028;5.670;2023-07-29T10:41:59;3.22;;;1.45;;
27558;SDS011;15002;52.028;5.670;2023-07-29T10:47:14;3.45;;;1.83;;
27558;SDS011;15002;52.028;5.670;2023-07-29T10:49:40;3.38;;;1.63;;
27558;SDS011;15002;52.028;5.670;2023-07-29T10:52:06;3.38;;;2.00;;
27558;SDS011;15002;52.028;5.670;2023-07-29T10:54:42;2.65;;;2.20;;
27558;SDS011;15002;52.028;5.670;2023-07-29T10:57:15;5.82;;;1.60;;
27558;SDS011;15002;52.028;5.670;2023-07-29T10:59:55;2.63;;;1.80;;
27558;SDS011;15002;52.028;5.670;2023-07-29T11:02:22;2.63;;;1.95;;
27558;SDS011;15002;52.028;5.670;2023-07-29T11:04:57;1.90;;;1.80;;
27558;SDS011;15002;52.028;5.670;2023-07-29T11:07:24;2.63;;;2.08;;
27558;SDS011;15002;52.028;5.670;2023-07-29T11:09:56;3.03;;;2.45;;
27558;SDS011;15002;52.028;5.670;2023-07-29T11:12:45;3.55;;;1.80;;
27558;SDS011;15002;52.028;5.670;2023-07-29T11:17:43;3.03;;;1.90;;
27558;SDS011;15002;52.028;5.670;2023-07-29T11:20:26;2.88;;;2.17;;
27558;SDS011;15002;52.028;5.670;2023-07-29T11:22:54;2.22;;;1.95;;
27558;SDS011;15002;52.028;5.670;2023-07-29T11:25:21;2.70;;;1.75;;
27558;SDS011;15002;52.028;5.670;2023-07-29T11:27:48;2.00;;;1.80;;
27558;SDS011;15002;52.028;5.670;2023-07-29T11:30:15;2.72;;;2.25;;
27558;SDS011;15002;52.028;5.670;2023-07-29T11:32:42;5.00;;;2.47;;
27558;SDS011;15002;52.028;5.670;2023-07-29T11:35:10;2.08;;;1.83;;
27558;SDS011;15002;52.028;5.670;2023-07-29T11:37:44;4.03;;;2.28;;
27558;SDS011;15002;52.028;5.670;2023-07-29T11:40:14;2.67;;;2.28;;
27558;SDS011;15002;52.028;5.670;2023-07-29T11:42:41;4.63;;;2.58;;
27558;SDS011;15002;52.028;5.670;2023-07-29T11:45:07;5.30;;;2.38;;
27558;SDS011;15002;52.028;5.670;2023-07-29T11:47:34;2.50;;;2.30;;
27558;SDS011;15002;52.028;5.670;2023-07-29T11:50:02;4.43;;;2.20;;
27558;SDS011;15002;52.028;5.670;2023-07-29T11:52:29;2.50;;;2.00;;
27558;SDS011;15002;52.028;5.670;2023-07-29T11:54:57;3.00;;;2.00;;
27558;SDS011;15002;52.028;5.670;2023-07-29T11:57:23;3.75;;;2.10;;
27558;SDS011;15002;52.028;5.670;2023-07-29T11:59:49;2.90;;;2.45;;
27558;SDS011;15002;52.028;5.670;2023-07-29T12:02:16;3.03;;;2.60;;
27558;SDS011;15002;52.028;5.670;2023-07-29T12:04:45;4.47;;;2.63;;
27558;SDS011;15002;52.028;5.670;2023-07-29T12:07:12;3.95;;;3.10;;
27558;SDS011;15002;52.028;5.670;2023-07-29T12:09:39;7.20;;;2.63;;
27558;SDS011;15002;52.028;5.670;2023-07-29T12:12:06;5.10;;;3.00;;
27558;SDS011;15002;52.028;5.670;2023-07-29T12:14:33;3.00;;;2.70;;
27558;SDS011;15002;52.028;5.670;2023-07-29T12:17:05;3.97;;;2.97;;
27558;SDS011;15002;52.028;5.670;2023-07-29T12:19:35;6.95;;;2.83;;
27558;SDS011;15002;52.028;5.670;2023-07-29T12:22:03;2.78;;;2.30;;
27558;SDS011;15002;52.028;5.670;2023-07-29T12:24:30;2.72;;;2.40;;
27558;SDS011;15002;52.028;5.670;2023-07-29T12:26:57;2.63;;;2.40;;
27558;SDS011;15002;52.028;5.670;2023-07-29T12:29:23;2.78;;;2.47;;
27558;SDS011;15002;52.028;5.670;2023-07-29T12:31:49;2.88;;;2.05;;
27558;SDS011;15002;52.028;5.670;2023-07-29T12:34:26;3.10;;;2.80;;
27558;SDS011;15002;52.028;5.670;2023-07-29T12:36:53;2.40;;;2.15;;
27558;SDS011;15002;52.028;5.670;2023-07-29T12:41:51;3.35;;;2.13;;
27558;SDS011;15002;52.028;5.670;2023-07-29T12:44:25;3.63;;;1.98;;
27558;SDS011;15002;52.028;5.670;2023-07-29T12:46:55;2.15;;;1.80;;
27558;SDS011;15002;52.028;5.670;2023-07-29T12:49:21;5.22;;;2.80;;
27558;SDS011;15002;52.028;5.670;2023-07-29T12:51:47;2.40;;;2.15;;
27558;SDS011;15002;52.028;5.670;2023-07-29T12:54:13;2.35;;;1.83;;
27558;SDS011;15002;52.028;5.670;2023-07-29T12:56:39;2.60;;;1.90;;
27558;SDS011;15002;52.028;5.670;2023-07-29T12:59:05;2.85;;;2.33;;
27558;SDS011;15002;52.028;5.670;2023-07-29T13:01:31;3.97;;;2.50;;
27558;SDS011;15002;52.028;5.670;2023-07-29T13:03:56;2.92;;;2.55;;
27558;SDS011;15002;52.028;5.670;2023-07-29T13:06:22;2.95;;;2.72;;
27558;SDS011;15002;52.028;5.670;2023-07-29T13:08:48;3.85;;;2.70;;
27558;SDS011;15002;52.028;5.670;2023-07-29T13:11:14;2.30;;;2.10;;
27558;SDS011;15002;52.028;5.670;2023-07-29T13:13:40;2.47;;;2.25;;
27558;SDS011;15002;52.028;5.670;2023-07-29T13:16:06;2.65;;;2.35;;
27558;SDS011;15002;52.028;5.670;2023-07-29T13:18:32;3.08;;;2.40;;
27558;SDS011;15002;52.028;5.670;2023-07-29T13:20:58;2.90;;;2.60;;
27558;SDS011;15002;52.028;5.670;2023-07-29T13:23:25;2.78;;;2.30;;
27558;SDS011;15002;52.028;5.670;2023-07-29T13:25:51;3.28;;;2.10;;
27558;SDS011;15002;52.028;5.670;2023-07-29T13:28:16;5.10;;;2.60;;
27558;SDS011;15002;52.028;5.670;2023-07-29T13:30:42;2.95;;;2.75;;
27558;SDS011;15002;52.028;5.670;2023-07-29T13:33:08;3.75;;;3.38;;
27558;SDS011;15002;52.028;5.670;2023-07-29T13:35:34;4.50;;;4.10;;
27558;SDS011;15002;52.028;5.670;2023-07-29T13:38:00;5.00;;;4.50;;
27558;SDS011;15002;52.028;5.670;2023-07-29T13:40:26;5.88;;;5.28;;
27558;SDS011;15002;52.028;5.670;2023-07-29T13:42:52;7.22;;;6.22;;
27558;SDS011;15002;52.028;5.670;2023-07-29T13:45:18;6.80;;;6.13;;
27558;SDS011;15002;52.028;5.670;2023-07-29T13:47:44;6.50;;;5.90;;
27558;SDS011;15002;52.028;5.670;2023-07-29T13:50:10;7.03;;;6.40;;
27558;SDS011;15002;52.028;5.670;2023-07-29T13:52:36;7.13;;;6.45;;
27558;SDS011;15002;52.028;5.670;2023-07-29T13:55:06;8.93;;;6.32;;
27558;SDS011;15002;52.028;5.670;2023-07-29T13:57:32;7.72;;;6.40;;
27558;SDS011;15002;52.028;5.670;2023-07-29T13:59:57;7.93;;;6.20;;
27558;SDS011;15002;52.028;5.670;2023-07-29T14:02:24;8.13;;;6.95;;
27558;SDS011;15002;52.028;5.670;2023-07-29T14:04:51;7.57;;;6.90;;
27558;SDS011;15002;52.028;5.670;2023-07-29T14:07:17;7.40;;;6.70;;
27558;SDS011;15002;52.028;5.670;2023-07-29T14:09:42;6.63;;;5.97;;
27558;SDS011;15002;52.028;5.670;2023-07-29T14:12:08;6.70;;;5.93;;
27558;SDS011;15002;52.028;5.670;2023-07-29T14:14:39;6.72;;;5.90;;
27558;SDS011;15002;52.028;5.670;2023-07-29T14:17:05;7.70;;;5.57;;
27558;SDS011;15002;52.028;5.670;2023-07-29T14:19:32;6.07;;;5.55;;
27558;SDS011;15002;52.028;5.670;2023-07-29T14:21:57;6.85;;;5.82;;
27558;SDS011;15002;52.028;5.670;2023-07-29T14:24:23;5.75;;;5.05;;
27558;SDS011;15002;52.028;5.670;2023-07-29T14:26:49;6.30;;;4.93;;
27558;SDS011;15002;52.028;5.670;2023-07-29T14:29:15;5.93;;;5.32;;
27558;SDS011;15002;52.028;5.670;2023-07-29T14:31:40;5.38;;;4.88;;
27558;SDS011;15002;52.028;5.670;2023-07-29T14:34:06;4.97;;;4.47;;
27558;SDS011;15002;52.028;5.670;2023-07-29T14:36:31;4.78;;;4.38;;
27558;SDS011;15002;52.028;5.670;2023-07-29T14:38:57;5.25;;;4.75;;
27558;SDS011;15002;52.028;5.670;2023-07-29T14:41:23;4.40;;;4.00;;
27558;SDS011;15002;52.028;5.670;2023-07-29T14:43:49;4.43;;;4.00;;
27558;SDS011;15002;52.028;5.670;2023-07-29T14:46:14;4.13;;;3.75;;
27558;SDS011;15002;52.028;5.670;2023-07-29T14:48:40;5.10;;;3.13;;
27558;SDS011;15002;52.028;5.670;2023-07-29T14:51:05;4.10;;;3.70;;
27558;SDS011;15002;52.028;5.670;2023-07-29T14:53:31;4.80;;;3.58;;
27558;SDS011;15002;52.028;5.670;2023-07-29T14:55:57;3.10;;;2.80;;
27558;SDS011;15002;52.028;5.670;2023-07-29T14:58:22;3.10;;;2.80;;
27558;SDS011;15002;52.028;5.670;2023-07-29T15:00:50;3.78;;;2.92;;